sensor_id;sensor_type;location;lat;lon;timestamp;P1;durP1;ratioP1;P2;durP2;ratioP2
71513;SDS011;59335;46.652;21.272;2023-01-15T00:00:50;17.70;;;10.18;;
71513;SDS011;59335;46.652;21.272;2023-01-15T00:03:54;17.13;;;9.68;;
71513;SDS011;59335;46.652;21.272;2023-01-15T00:06:58;17.02;;;10.07;;
71513;SDS011;59335;46.652;21.272;2023-01-15T00:10:01;17.03;;;9.70;;
71513;SDS011;59335;46.652;21.272;2023-01-15T00:13:04;16.85;;;10.07;;
71513;SDS011;59335;46.652;21.272;2023-01-15T00:16:07;16.65;;;10.40;;
71513;SDS011;59335;46.652;21.272;2023-01-15T00:19:12;17.70;;;9.70;;
71513;SDS011;59335;46.652;21.272;2023-01-15T00:22:15;15.88;;;9.68;;
71513;SDS011;59335;46.652;21.272;2023-01-15T00:25:18;15.30;;;9.47;;
71513;SDS011;59335;46.652;21.272;2023-01-15T00:28:40;16.92;;;10.38;;
71513;SDS011;59335;46.652;21.272;2023-01-15T00:31:44;16.92;;;9.80;;
71513;SDS011;59335;46.652;21.272;2023-01-15T00:34:54;16.75;;;10.15;;
71513;SDS011;59335;46.652;21.272;2023-01-15T00:37:59;16.60;;;9.70;;
71513;SDS011;59335;46.652;21.272;2023-01-15T00:41:02;15.90;;;9.33;;
71513;SDS011;59335;46.652;21.272;2023-01-15T00:44:04;16.40;;;9.73;;
71513;SDS011;59335;46.652;21.272;2023-01-15T00:47:07;16.85;;;9.50;;
71513;SDS011;59335;46.652;21.272;2023-01-15T00:50:17;16.13;;;9.75;;
71513;SDS011;59335;46.652;21.272;2023-01-15T00:53:20;16.27;;;9.65;;
71513;SDS011;59335;46.652;21.272;2023-01-15T00:56:22;16.13;;;9.57;;
71513;SDS011;59335;46.652;21.272;2023-01-15T00:59:26;16.20;;;9.98;;
71513;SDS011;59335;46.652;21.272;2023-01-15T01:02:29;16.08;;;9.15;;
71513;SDS011;59335;46.652;21.272;2023-01-15T01:05:34;14.82;;;9.30;;
71513;SDS011;59335;46.652;21.272;2023-01-15T01:08:37;16.48;;;9.45;;
71513;SDS011;59335;46.652;21.272;2023-01-15T01:11:41;15.77;;;9.40;;
71513;SDS011;59335;46.652;21.272;2023-01-15T01:14:44;15.60;;;9.40;;
71513;SDS011;59335;46.652;21.272;2023-01-15T01:17:47;15.63;;;9.48;;
71513;SDS011;59335;46.652;21.272;2023-01-15T01:20:53;14.45;;;9.30;;
71513;SDS011;59335;46.652;21.272;2023-01-15T01:23:59;15.63;;;9.32;;
71513;SDS011;59335;46.652;21.272;2023-01-15T01:27:02;15.83;;;9.20;;
71513;SDS011;59335;46.652;21.272;2023-01-15T01:30:05;15.02;;;8.80;;
71513;SDS011;59335;46.652;21.272;2023-01-15T01:33:09;16.73;;;9.70;;
71513;SDS011;59335;46.652;21.272;2023-01-15T01:36:12;15.45;;;9.25;;
71513;SDS011;59335;46.652;21.272;2023-01-15T01:39:16;16.00;;;9.27;;
71513;SDS011;59335;46.652;21.272;2023-01-15T01:42:20;15.87;;;9.37;;
71513;SDS011;59335;46.652;21.272;2023-01-15T01:45:31;14.82;;;9.10;;
71513;SDS011;59335;46.652;21.272;2023-01-15T01:48:35;14.85;;;8.65;;
71513;SDS011;59335;46.652;21.272;2023-01-15T01:51:38;16.58;;;9.60;;
71513;SDS011;59335;46.652;21.272;2023-01-15T01:54:45;15.85;;;8.95;;
71513;SDS011;59335;46.652;21.272;2023-01-15T01:57:50;13.50;;;8.80;;
71513;SDS011;59335;46.652;21.272;2023-01-15T02:00:56;15.48;;;9.20;;
71513;SDS011;59335;46.652;21.272;2023-01-15T02:04:00;16.95;;;9.05;;
71513;SDS011;59335;46.652;21.272;2023-01-15T02:07:07;14.73;;;8.55;;
71513;SDS011;59335;46.652;21.272;2023-01-15T02:10:13;14.55;;;8.60;;
71513;SDS011;59335;46.652;21.272;2023-01-15T02:13:36;15.43;;;8.53;;
71513;SDS011;59335;46.652;21.272;2023-01-15T02:29:48;14.10;;;8.33;;
71513;SDS011;59335;46.652;21.272;2023-01-15T02:33:19;14.45;;;8.25;;
71513;SDS011;59335;46.652;21.272;2023-01-15T02:36:27;13.40;;;8.30;;
71513;SDS011;59335;46.652;21.272;2023-01-15T02:39:36;14.13;;;8.40;;
71513;SDS011;59335;46.652;21.272;2023-01-15T02:42:43;14.02;;;8.57;;
71513;SDS011;59335;46.652;21.272;2023-01-15T02:45:49;14.73;;;8.53;;
71513;SDS011;59335;46.652;21.272;2023-01-15T02:48:55;15.05;;;8.13;;
71513;SDS011;59335;46.652;21.272;2023-01-15T02:52:06;13.27;;;7.95;;
71513;SDS011;59335;46.652;21.272;2023-01-15T02:55:17;13.80;;;8.20;;
71513;SDS011;59335;46.652;21.272;2023-01-15T02:58:27;15.43;;;8.60;;
71513;SDS011;59335;46.652;21.272;2023-01-15T03:01:37;13.43;;;7.80;;
71513;SDS011;59335;46.652;21.272;2023-01-15T03:08:04;14.18;;;8.60;;
71513;SDS011;59335;46.652;21.272;2023-01-15T03:11:11;12.60;;;7.68;;
71513;SDS011;59335;46.652;21.272;2023-01-15T03:14:30;14.65;;;8.52;;
71513;SDS011;59335;46.652;21.272;2023-01-15T03:17:46;13.70;;;7.90;;
71513;SDS011;59335;46.652;21.272;2023-01-15T03:20:54;13.80;;;8.15;;
71513;SDS011;59335;46.652;21.272;2023-01-15T03:24:01;13.90;;;8.00;;
71513;SDS011;59335;46.652;21.272;2023-01-15T03:27:06;12.27;;;7.50;;
71513;SDS011;59335;46.652;21.272;2023-01-15T03:30:12;13.65;;;8.18;;
71513;SDS011;59335;46.652;21.272;2023-01-15T03:33:20;13.23;;;7.80;;
71513;SDS011;59335;46.652;21.272;2023-01-15T03:36:24;13.30;;;8.35;;
71513;SDS011;59335;46.652;21.272;2023-01-15T03:39:28;14.95;;;8.07;;
71513;SDS011;59335;46.652;21.272;2023-01-15T03:42:59;14.02;;;7.80;;
71513;SDS011;59335;46.652;21.272;2023-01-15T03:53:21;12.02;;;7.20;;
71513;SDS011;59335;46.652;21.272;2023-01-15T04:00:01;13.30;;;7.82;;
71513;SDS011;59335;46.652;21.272;2023-01-15T04:03:18;12.65;;;7.45;;
71513;SDS011;59335;46.652;21.272;2023-01-15T04:06:24;12.67;;;7.67;;
71513;SDS011;59335;46.652;21.272;2023-01-15T04:09:35;12.10;;;7.78;;
71513;SDS011;59335;46.652;21.272;2023-01-15T04:12:43;13.43;;;7.68;;
71513;SDS011;59335;46.652;21.272;2023-01-15T04:15:46;12.65;;;7.78;;
71513;SDS011;59335;46.652;21.272;2023-01-15T04:18:50;13.38;;;7.90;;
71513;SDS011;59335;46.652;21.272;2023-01-15T04:21:54;13.37;;;7.53;;
71513;SDS011;59335;46.652;21.272;2023-01-15T04:24:56;12.05;;;6.78;;
71513;SDS011;59335;46.652;21.272;2023-01-15T04:27:59;11.70;;;7.43;;
71513;SDS011;59335;46.652;21.272;2023-01-15T04:31:02;11.98;;;7.10;;
71513;SDS011;59335;46.652;21.272;2023-01-15T04:34:05;13.18;;;7.28;;
71513;SDS011;59335;46.652;21.272;2023-01-15T04:37:08;13.17;;;7.03;;
71513;SDS011;59335;46.652;21.272;2023-01-15T04:40:11;10.98;;;6.72;;
71513;SDS011;59335;46.652;21.272;2023-01-15T04:43:36;11.32;;;6.28;;
71513;SDS011;59335;46.652;21.272;2023-01-15T04:46:57;11.25;;;7.03;;
71513;SDS011;59335;46.652;21.272;2023-01-15T04:50:01;11.85;;;7.18;;
71513;SDS011;59335;46.652;21.272;2023-01-15T04:53:04;11.37;;;6.67;;
71513;SDS011;59335;46.652;21.272;2023-01-15T04:56:07;12.55;;;7.03;;
71513;SDS011;59335;46.652;21.272;2023-01-15T04:59:11;10.82;;;6.95;;
71513;SDS011;59335;46.652;21.272;2023-01-15T05:02:14;12.43;;;6.80;;
71513;SDS011;59335;46.652;21.272;2023-01-15T05:05:17;11.88;;;6.82;;
71513;SDS011;59335;46.652;21.272;2023-01-15T05:08:19;11.53;;;6.50;;
71513;SDS011;59335;46.652;21.272;2023-01-15T05:11:22;12.27;;;6.93;;
71513;SDS011;59335;46.652;21.272;2023-01-15T05:14:25;11.10;;;6.68;;
71513;SDS011;59335;46.652;21.272;2023-01-15T05:17:28;11.45;;;6.63;;
71513;SDS011;59335;46.652;21.272;2023-01-15T05:20:36;11.45;;;6.60;;
71513;SDS011;59335;46.652;21.272;2023-01-15T05:23:39;10.70;;;6.30;;
71513;SDS011;59335;46.652;21.272;2023-01-15T05:26:42;10.85;;;6.30;;
71513;SDS011;59335;46.652;21.272;2023-01-15T05:29:45;11.38;;;6.47;;
71513;SDS011;59335;46.652;21.272;2023-01-15T05:32:49;10.75;;;6.22;;
71513;SDS011;59335;46.652;21.272;2023-01-15T05:35:52;11.25;;;6.78;;
71513;SDS011;59335;46.652;21.272;2023-01-15T05:38:55;10.90;;;6.13;;
71513;SDS011;59335;46.652;21.272;2023-01-15T05:42:00;10.48;;;6.25;;
71513;SDS011;59335;46.652;21.272;2023-01-15T05:45:03;10.30;;;6.10;;
71513;SDS011;59335;46.652;21.272;2023-01-15T05:48:06;12.63;;;6.47;;
71513;SDS011;59335;46.652;21.272;2023-01-15T05:51:09;10.25;;;6.15;;
71513;SDS011;59335;46.652;21.272;2023-01-15T05:54:13;10.43;;;6.30;;
71513;SDS011;59335;46.652;21.272;2023-01-15T05:57:17;11.10;;;6.13;;
71513;SDS011;59335;46.652;21.272;2023-01-15T06:00:21;10.40;;;6.70;;
71513;SDS011;59335;46.652;21.272;2023-01-15T06:03:25;10.05;;;6.18;;
71513;SDS011;59335;46.652;21.272;2023-01-15T06:06:28;10.90;;;5.75;;
71513;SDS011;59335;46.652;21.272;2023-01-15T06:09:31;10.50;;;5.90;;
71513;SDS011;59335;46.652;21.272;2023-01-15T06:12:34;10.18;;;5.88;;
71513;SDS011;59335;46.652;21.272;2023-01-15T06:15:37;10.65;;;6.25;;
71513;SDS011;59335;46.652;21.272;2023-01-15T06:18:40;11.10;;;6.15;;
71513;SDS011;59335;46.652;21.272;2023-01-15T06:21:43;10.30;;;5.95;;
71513;SDS011;59335;46.652;21.272;2023-01-15T06:24:46;10.80;;;6.13;;
71513;SDS011;59335;46.652;21.272;2023-01-15T06:27:48;11.05;;;6.43;;
71513;SDS011;59335;46.652;21.272;2023-01-15T06:30:51;10.35;;;6.00;;
71513;SDS011;59335;46.652;21.272;2023-01-15T06:33:54;10.27;;;5.65;;
71513;SDS011;59335;46.652;21.272;2023-01-15T06:36:57;11.25;;;6.75;;
71513;SDS011;59335;46.652;21.272;2023-01-15T06:40:00;9.90;;;6.20;;
71513;SDS011;59335;46.652;21.272;2023-01-15T06:43:03;10.77;;;6.22;;
71513;SDS011;59335;46.652;21.272;2023-01-15T06:46:24;10.23;;;6.13;;
71513;SDS011;59335;46.652;21.272;2023-01-15T06:49:50;10.35;;;6.00;;
71513;SDS011;59335;46.652;21.272;2023-01-15T06:52:53;10.85;;;6.57;;
71513;SDS011;59335;46.652;21.272;2023-01-15T06:55:55;9.30;;;5.90;;
71513;SDS011;59335;46.652;21.272;2023-01-15T06:58:58;10.55;;;6.38;;
71513;SDS011;59335;46.652;21.272;2023-01-15T07:02:01;10.68;;;6.53;;
71513;SDS011;59335;46.652;21.272;2023-01-15T07:05:04;10.73;;;6.57;;
71513;SDS011;59335;46.652;21.272;2023-01-15T07:08:07;10.18;;;6.15;;
71513;SDS011;59335;46.652;21.272;2023-01-15T07:11:11;10.23;;;5.37;;
71513;SDS011;59335;46.652;21.272;2023-01-15T07:17:20;10.85;;;6.43;;
71513;SDS011;59335;46.652;21.272;2023-01-15T07:20:23;10.20;;;6.22;;
71513;SDS011;59335;46.652;21.272;2023-01-15T07:23:28;9.90;;;6.07;;
71513;SDS011;59335;46.652;21.272;2023-01-15T07:26:31;11.27;;;6.63;;
71513;SDS011;59335;46.652;21.272;2023-01-15T07:29:33;10.02;;;6.47;;
71513;SDS011;59335;46.652;21.272;2023-01-15T07:32:37;10.48;;;6.80;;
71513;SDS011;59335;46.652;21.272;2023-01-15T07:35:40;10.00;;;5.80;;
71513;SDS011;59335;46.652;21.272;2023-01-15T07:38:43;9.98;;;6.28;;
71513;SDS011;59335;46.652;21.272;2023-01-15T07:41:45;9.73;;;5.90;;
71513;SDS011;59335;46.652;21.272;2023-01-15T07:45:09;10.65;;;6.25;;
71513;SDS011;59335;46.652;21.272;2023-01-15T07:48:31;11.63;;;6.75;;
71513;SDS011;59335;46.652;21.272;2023-01-15T07:51:52;9.80;;;5.78;;
71513;SDS011;59335;46.652;21.272;2023-01-15T07:54:55;10.30;;;6.45;;
71513;SDS011;59335;46.652;21.272;2023-01-15T07:57:57;10.90;;;6.70;;
71513;SDS011;59335;46.652;21.272;2023-01-15T08:01:00;10.90;;;6.40;;
71513;SDS011;59335;46.652;21.272;2023-01-15T08:04:03;9.55;;;6.03;;
71513;SDS011;59335;46.652;21.272;2023-01-15T08:07:06;11.20;;;6.60;;
71513;SDS011;59335;46.652;21.272;2023-01-15T08:10:11;10.73;;;6.47;;
71513;SDS011;59335;46.652;21.272;2023-01-15T08:13:15;9.60;;;6.03;;
71513;SDS011;59335;46.652;21.272;2023-01-15T08:16:37;10.35;;;6.47;;
71513;SDS011;59335;46.652;21.272;2023-01-15T08:19:40;10.82;;;6.40;;
71513;SDS011;59335;46.652;21.272;2023-01-15T08:22:43;10.63;;;6.32;;
71513;SDS011;59335;46.652;21.272;2023-01-15T08:25:45;10.45;;;6.10;;
71513;SDS011;59335;46.652;21.272;2023-01-15T08:28:48;11.97;;;6.90;;
71513;SDS011;59335;46.652;21.272;2023-01-15T08:31:51;9.95;;;6.15;;
71513;SDS011;59335;46.652;21.272;2023-01-15T08:34:54;11.13;;;6.70;;
71513;SDS011;59335;46.652;21.272;2023-01-15T08:37:56;11.05;;;6.80;;
71513;SDS011;59335;46.652;21.272;2023-01-15T08:40:59;10.40;;;6.38;;
71513;SDS011;59335;46.652;21.272;2023-01-15T08:44:03;11.70;;;6.67;;
71513;SDS011;59335;46.652;21.272;2023-01-15T08:47:06;10.43;;;6.13;;
71513;SDS011;59335;46.652;21.272;2023-01-15T08:50:10;10.02;;;6.57;;
71513;SDS011;59335;46.652;21.272;2023-01-15T08:53:16;10.48;;;6.32;;
71513;SDS011;59335;46.652;21.272;2023-01-15T08:56:22;11.52;;;6.47;;
71513;SDS011;59335;46.652;21.272;2023-01-15T08:59:45;11.00;;;6.40;;
71513;SDS011;59335;46.652;21.272;2023-01-15T09:03:08;10.32;;;6.20;;
71513;SDS011;59335;46.652;21.272;2023-01-15T09:06:11;10.05;;;5.93;;
71513;SDS011;59335;46.652;21.272;2023-01-15T09:09:19;10.48;;;6.25;;
71513;SDS011;59335;46.652;21.272;2023-01-15T09:12:22;10.75;;;6.63;;
71513;SDS011;59335;46.652;21.272;2023-01-15T09:15:28;10.93;;;6.77;;
71513;SDS011;59335;46.652;21.272;2023-01-15T09:18:32;10.65;;;6.97;;
71513;SDS011;59335;46.652;21.272;2023-01-15T09:21:37;11.25;;;6.97;;
71513;SDS011;59335;46.652;21.272;2023-01-15T09:24:40;10.95;;;6.25;;
71513;SDS011;59335;46.652;21.272;2023-01-15T09:27:42;10.43;;;6.32;;
71513;SDS011;59335;46.652;21.272;2023-01-15T09:30:45;10.03;;;5.93;;
71513;SDS011;59335;46.652;21.272;2023-01-15T09:33:48;10.50;;;6.13;;
71513;SDS011;59335;46.652;21.272;2023-01-15T09:36:50;10.80;;;6.60;;
71513;SDS011;59335;46.652;21.272;2023-01-15T09:39:53;10.02;;;6.25;;
71513;SDS011;59335;46.652;21.272;2023-01-15T09:43:02;10.85;;;6.93;;
71513;SDS011;59335;46.652;21.272;2023-01-15T09:46:10;10.70;;;6.10;;
71513;SDS011;59335;46.652;21.272;2023-01-15T09:56:02;10.18;;;6.28;;
71513;SDS011;59335;46.652;21.272;2023-01-15T09:59:17;10.38;;;6.38;;
71513;SDS011;59335;46.652;21.272;2023-01-15T10:02:40;10.43;;;6.03;;
71513;SDS011;59335;46.652;21.272;2023-01-15T10:05:49;10.80;;;6.40;;
71513;SDS011;59335;46.652;21.272;2023-01-15T10:09:13;10.15;;;6.35;;
71513;SDS011;59335;46.652;21.272;2023-01-15T10:12:25;11.65;;;6.35;;
71513;SDS011;59335;46.652;21.272;2023-01-15T10:15:45;9.77;;;6.10;;
71513;SDS011;59335;46.652;21.272;2023-01-15T10:18:49;9.83;;;6.37;;
71513;SDS011;59335;46.652;21.272;2023-01-15T10:21:55;10.13;;;6.40;;
71513;SDS011;59335;46.652;21.272;2023-01-15T10:25:09;10.50;;;6.45;;
71513;SDS011;59335;46.652;21.272;2023-01-15T10:28:39;11.25;;;6.45;;
71513;SDS011;59335;46.652;21.272;2023-01-15T10:42:36;9.80;;;6.40;;
71513;SDS011;59335;46.652;21.272;2023-01-15T10:52:11;9.23;;;5.80;;
71513;SDS011;59335;46.652;21.272;2023-01-15T10:58:48;9.95;;;6.10;;
71513;SDS011;59335;46.652;21.272;2023-01-15T11:01:58;9.73;;;5.60;;
71513;SDS011;59335;46.652;21.272;2023-01-15T11:05:19;10.18;;;6.13;;
71513;SDS011;59335;46.652;21.272;2023-01-15T11:08:23;9.57;;;6.00;;
71513;SDS011;59335;46.652;21.272;2023-01-15T11:11:56;9.15;;;5.53;;
71513;SDS011;59335;46.652;21.272;2023-01-15T11:15:21;10.35;;;6.25;;
71513;SDS011;59335;46.652;21.272;2023-01-15T11:18:44;9.55;;;5.82;;
71513;SDS011;59335;46.652;21.272;2023-01-15T11:22:17;9.88;;;5.97;;
71513;SDS011;59335;46.652;21.272;2023-01-15T11:25:27;10.93;;;6.30;;
71513;SDS011;59335;46.652;21.272;2023-01-15T11:28:36;10.45;;;6.47;;
71513;SDS011;59335;46.652;21.272;2023-01-15T11:31:47;9.95;;;5.88;;
71513;SDS011;59335;46.652;21.272;2023-01-15T11:34:53;9.48;;;5.85;;
71513;SDS011;59335;46.652;21.272;2023-01-15T11:38:16;10.02;;;6.38;;
71513;SDS011;59335;46.652;21.272;2023-01-15T11:41:20;8.93;;;6.00;;
71513;SDS011;59335;46.652;21.272;2023-01-15T11:44:26;10.02;;;6.05;;
71513;SDS011;59335;46.652;21.272;2023-01-15T11:47:51;9.95;;;6.45;;
71513;SDS011;59335;46.652;21.272;2023-01-15T11:51:13;10.18;;;6.53;;
71513;SDS011;59335;46.652;21.272;2023-01-15T11:54:17;9.23;;;5.78;;
71513;SDS011;59335;46.652;21.272;2023-01-15T11:57:30;9.20;;;5.50;;
71513;SDS011;59335;46.652;21.272;2023-01-15T12:00:35;9.50;;;5.78;;
71513;SDS011;59335;46.652;21.272;2023-01-15T12:03:47;9.60;;;5.85;;
71513;SDS011;59335;46.652;21.272;2023-01-15T12:06:50;8.95;;;5.97;;
71513;SDS011;59335;46.652;21.272;2023-01-15T12:10:08;9.98;;;5.88;;
71513;SDS011;59335;46.652;21.272;2023-01-15T12:30:26;9.37;;;5.63;;
71513;SDS011;59335;46.652;21.272;2023-01-15T12:40:23;8.80;;;5.40;;
71513;SDS011;59335;46.652;21.272;2023-01-15T12:43:32;11.07;;;5.95;;
71513;SDS011;59335;46.652;21.272;2023-01-15T12:46:53;9.50;;;5.50;;
71513;SDS011;59335;46.652;21.272;2023-01-15T12:49:58;8.55;;;5.43;;
71513;SDS011;59335;46.652;21.272;2023-01-15T12:53:12;8.55;;;5.40;;
71513;SDS011;59335;46.652;21.272;2023-01-15T12:56:46;9.38;;;5.50;;
71513;SDS011;59335;46.652;21.272;2023-01-15T12:59:59;8.25;;;5.25;;
71513;SDS011;59335;46.652;21.272;2023-01-15T13:03:09;9.40;;;5.40;;
71513;SDS011;59335;46.652;21.272;2023-01-15T13:06:21;9.55;;;5.45;;
71513;SDS011;59335;46.652;21.272;2023-01-15T13:12:44;10.02;;;5.43;;
71513;SDS011;59335;46.652;21.272;2023-01-15T13:22:30;8.63;;;5.30;;
71513;SDS011;59335;46.652;21.272;2023-01-15T13:32:28;9.55;;;5.47;;
71513;SDS011;59335;46.652;21.272;2023-01-15T13:35:36;9.30;;;5.50;;
71513;SDS011;59335;46.652;21.272;2023-01-15T13:38:46;8.65;;;5.38;;
71513;SDS011;59335;46.652;21.272;2023-01-15T13:41:53;9.55;;;5.53;;
71513;SDS011;59335;46.652;21.272;2023-01-15T13:48:19;8.98;;;5.60;;
71513;SDS011;59335;46.652;21.272;2023-01-15T13:51:32;8.27;;;5.30;;
71513;SDS011;59335;46.652;21.272;2023-01-15T13:54:44;9.55;;;5.60;;
71513;SDS011;59335;46.652;21.272;2023-01-15T13:57:47;9.30;;;5.45;;
71513;SDS011;59335;46.652;21.272;2023-01-15T14:01:01;8.82;;;5.70;;
71513;SDS011;59335;46.652;21.272;2023-01-15T14:04:31;8.85;;;5.30;;
71513;SDS011;59335;46.652;21.272;2023-01-15T14:07:37;9.70;;;5.60;;
71513;SDS011;59335;46.652;21.272;2023-01-15T14:10:40;9.02;;;5.50;;
71513;SDS011;59335;46.652;21.272;2023-01-15T14:13:56;9.13;;;5.82;;
71513;SDS011;59335;46.652;21.272;2023-01-15T14:21:09;8.85;;;5.68;;
71513;SDS011;59335;46.652;21.272;2023-01-15T14:24:41;9.00;;;5.63;;
71513;SDS011;59335;46.652;21.272;2023-01-15T14:35:01;9.10;;;5.55;;
71513;SDS011;59335;46.652;21.272;2023-01-15T14:38:05;9.00;;;5.20;;
71513;SDS011;59335;46.652;21.272;2023-01-15T14:41:15;9.03;;;5.40;;
71513;SDS011;59335;46.652;21.272;2023-01-15T14:44:29;9.07;;;5.45;;
71513;SDS011;59335;46.652;21.272;2023-01-15T14:47:47;9.85;;;5.60;;
71513;SDS011;59335;46.652;21.272;2023-01-15T14:50:53;8.63;;;5.30;;
71513;SDS011;59335;46.652;21.272;2023-01-15T14:54:08;8.20;;;5.47;;
71513;SDS011;59335;46.652;21.272;2023-01-15T14:57:14;9.63;;;5.53;;
71513;SDS011;59335;46.652;21.272;2023-01-15T15:00:18;9.93;;;5.60;;
71513;SDS011;59335;46.652;21.272;2023-01-15T15:03:27;9.95;;;6.15;;
71513;SDS011;59335;46.652;21.272;2023-01-15T15:06:40;9.65;;;5.55;;
71513;SDS011;59335;46.652;21.272;2023-01-15T15:16:29;9.13;;;5.75;;
71513;SDS011;59335;46.652;21.272;2023-01-15T15:19:35;8.95;;;5.60;;
71513;SDS011;59335;46.652;21.272;2023-01-15T15:22:43;9.23;;;5.43;;
71513;SDS011;59335;46.652;21.272;2023-01-15T15:29:19;9.33;;;5.27;;
71513;SDS011;59335;46.652;21.272;2023-01-15T15:32:23;8.38;;;5.68;;
71513;SDS011;59335;46.652;21.272;2023-01-15T15:35:27;9.45;;;5.70;;
71513;SDS011;59335;46.652;21.272;2023-01-15T15:38:31;9.63;;;5.93;;
71513;SDS011;59335;46.652;21.272;2023-01-15T15:41:35;9.52;;;6.05;;
71513;SDS011;59335;46.652;21.272;2023-01-15T15:44:58;9.33;;;5.40;;
71513;SDS011;59335;46.652;21.272;2023-01-15T15:48:31;8.95;;;5.53;;
71513;SDS011;59335;46.652;21.272;2023-01-15T15:54:56;9.75;;;5.90;;
71513;SDS011;59335;46.652;21.272;2023-01-15T15:58:01;9.45;;;5.75;;
71513;SDS011;59335;46.652;21.272;2023-01-15T16:01:09;8.93;;;5.50;;
71513;SDS011;59335;46.652;21.272;2023-01-15T16:04:15;9.55;;;5.65;;
71513;SDS011;59335;46.652;21.272;2023-01-15T16:07:24;9.65;;;5.68;;
71513;SDS011;59335;46.652;21.272;2023-01-15T16:10:31;9.18;;;5.82;;
71513;SDS011;59335;46.652;21.272;2023-01-15T16:16:59;9.70;;;5.87;;
71513;SDS011;59335;46.652;21.272;2023-01-15T16:20:02;9.70;;;5.80;;
71513;SDS011;59335;46.652;21.272;2023-01-15T16:26:48;9.07;;;5.88;;
71513;SDS011;59335;46.652;21.272;2023-01-15T16:29:57;9.02;;;5.47;;
71513;SDS011;59335;46.652;21.272;2023-01-15T16:33:02;9.33;;;6.27;;
71513;SDS011;59335;46.652;21.272;2023-01-15T16:36:09;9.57;;;6.07;;
71513;SDS011;59335;46.652;21.272;2023-01-15T16:39:17;9.45;;;6.22;;
71513;SDS011;59335;46.652;21.272;2023-01-15T16:45:29;11.27;;;6.63;;
71513;SDS011;59335;46.652;21.272;2023-01-15T16:48:34;9.57;;;6.00;;
71513;SDS011;59335;46.652;21.272;2023-01-15T16:51:49;9.38;;;5.93;;
71513;SDS011;59335;46.652;21.272;2023-01-15T16:54:54;9.73;;;6.07;;
71513;SDS011;59335;46.652;21.272;2023-01-15T16:58:13;10.38;;;6.40;;
71513;SDS011;59335;46.652;21.272;2023-01-15T17:04:40;9.37;;;6.17;;
71513;SDS011;59335;46.652;21.272;2023-01-15T17:07:46;9.38;;;6.28;;
71513;SDS011;59335;46.652;21.272;2023-01-15T17:10:58;9.77;;;5.80;;
71513;SDS011;59335;46.652;21.272;2023-01-15T17:14:18;9.63;;;5.93;;
71513;SDS011;59335;46.652;21.272;2023-01-15T17:17:26;10.65;;;6.20;;
71513;SDS011;59335;46.652;21.272;2023-01-15T17:20:33;9.40;;;5.90;;
71513;SDS011;59335;46.652;21.272;2023-01-15T17:23:39;10.68;;;6.43;;
71513;SDS011;59335;46.652;21.272;2023-01-15T17:26:45;9.98;;;5.90;;
71513;SDS011;59335;46.652;21.272;2023-01-15T17:29:50;9.98;;;6.03;;
71513;SDS011;59335;46.652;21.272;2023-01-15T17:32:57;10.07;;;5.82;;
71513;SDS011;59335;46.652;21.272;2023-01-15T17:36:03;9.40;;;5.87;;
71513;SDS011;59335;46.652;21.272;2023-01-15T17:39:07;10.15;;;6.10;;
71513;SDS011;59335;46.652;21.272;2023-01-15T17:42:16;10.63;;;6.70;;
71513;SDS011;59335;46.652;21.272;2023-01-15T17:45:23;9.57;;;5.90;;
71513;SDS011;59335;46.652;21.272;2023-01-15T17:48:31;10.18;;;5.93;;
71513;SDS011;59335;46.652;21.272;2023-01-15T17:51:36;9.70;;;5.80;;
71513;SDS011;59335;46.652;21.272;2023-01-15T17:54:41;9.82;;;6.10;;
71513;SDS011;59335;46.652;21.272;2023-01-15T17:58:05;9.85;;;6.65;;
71513;SDS011;59335;46.652;21.272;2023-01-15T18:01:31;10.45;;;6.40;;
71513;SDS011;59335;46.652;21.272;2023-01-15T18:04:58;10.07;;;6.60;;
71513;SDS011;59335;46.652;21.272;2023-01-15T18:08:21;9.70;;;6.07;;
71513;SDS011;59335;46.652;21.272;2023-01-15T18:11:26;10.63;;;6.57;;
71513;SDS011;59335;46.652;21.272;2023-01-15T18:14:34;10.05;;;6.07;;
71513;SDS011;59335;46.652;21.272;2023-01-15T18:17:38;10.35;;;6.57;;
71513;SDS011;59335;46.652;21.272;2023-01-15T18:20:42;10.48;;;6.57;;
71513;SDS011;59335;46.652;21.272;2023-01-15T18:23:49;11.17;;;6.90;;
71513;SDS011;59335;46.652;21.272;2023-01-15T18:26:52;11.05;;;6.25;;
71513;SDS011;59335;46.652;21.272;2023-01-15T18:29:58;10.75;;;6.18;;
71513;SDS011;59335;46.652;21.272;2023-01-15T18:33:02;10.50;;;6.80;;
71513;SDS011;59335;46.652;21.272;2023-01-15T18:36:08;10.48;;;6.63;;
71513;SDS011;59335;46.652;21.272;2023-01-15T18:39:14;9.90;;;6.67;;
71513;SDS011;59335;46.652;21.272;2023-01-15T18:42:20;10.20;;;6.53;;
71513;SDS011;59335;46.652;21.272;2023-01-15T18:45:45;10.45;;;6.28;;
71513;SDS011;59335;46.652;21.272;2023-01-15T18:49:10;10.95;;;6.50;;
71513;SDS011;59335;46.652;21.272;2023-01-15T18:52:14;10.73;;;6.60;;
71513;SDS011;59335;46.652;21.272;2023-01-15T18:55:37;10.53;;;6.47;;
71513;SDS011;59335;46.652;21.272;2023-01-15T18:58:42;11.93;;;6.75;;
71513;SDS011;59335;46.652;21.272;2023-01-15T19:01:46;9.98;;;6.25;;
71513;SDS011;59335;46.652;21.272;2023-01-15T19:04:50;9.77;;;6.57;;
71513;SDS011;59335;46.652;21.272;2023-01-15T19:07:55;10.55;;;6.85;;
71513;SDS011;59335;46.652;21.272;2023-01-15T19:10:59;10.03;;;6.43;;
71513;SDS011;59335;46.652;21.272;2023-01-15T19:14:04;9.63;;;6.45;;
71513;SDS011;59335;46.652;21.272;2023-01-15T19:17:29;10.65;;;6.47;;
71513;SDS011;59335;46.652;21.272;2023-01-15T19:20:52;9.75;;;6.07;;
71513;SDS011;59335;46.652;21.272;2023-01-15T19:23:56;11.88;;;6.45;;
71513;SDS011;59335;46.652;21.272;2023-01-15T19:27:04;10.03;;;6.40;;
71513;SDS011;59335;46.652;21.272;2023-01-15T19:30:09;10.82;;;6.65;;
71513;SDS011;59335;46.652;21.272;2023-01-15T19:33:16;9.75;;;6.53;;
71513;SDS011;59335;46.652;21.272;2023-01-15T19:36:20;10.60;;;6.53;;
71513;SDS011;59335;46.652;21.272;2023-01-15T19:39:25;12.15;;;6.70;;
71513;SDS011;59335;46.652;21.272;2023-01-15T19:42:31;9.57;;;6.40;;
71513;SDS011;59335;46.652;21.272;2023-01-15T19:45:59;9.23;;;6.00;;
71513;SDS011;59335;46.652;21.272;2023-01-15T19:49:22;10.55;;;6.70;;
71513;SDS011;59335;46.652;21.272;2023-01-15T19:52:46;10.20;;;6.88;;
71513;SDS011;59335;46.652;21.272;2023-01-15T19:55:54;10.95;;;6.75;;
71513;SDS011;59335;46.652;21.272;2023-01-15T19:59:01;10.00;;;6.13;;
71513;SDS011;59335;46.652;21.272;2023-01-15T20:02:05;10.38;;;6.22;;
71513;SDS011;59335;46.652;21.272;2023-01-15T20:05:10;10.57;;;6.43;;
71513;SDS011;59335;46.652;21.272;2023-01-15T20:08:16;10.95;;;6.57;;
71513;SDS011;59335;46.652;21.272;2023-01-15T20:11:21;10.93;;;6.65;;
71513;SDS011;59335;46.652;21.272;2023-01-15T20:14:28;11.33;;;6.40;;
71513;SDS011;59335;46.652;21.272;2023-01-15T20:17:32;10.80;;;7.07;;
71513;SDS011;59335;46.652;21.272;2023-01-15T20:20:37;10.20;;;6.38;;
71513;SDS011;59335;46.652;21.272;2023-01-15T20:23:41;10.27;;;6.22;;
71513;SDS011;59335;46.652;21.272;2023-01-15T20:26:46;10.07;;;6.13;;
71513;SDS011;59335;46.652;21.272;2023-01-15T20:29:51;10.80;;;6.67;;
71513;SDS011;59335;46.652;21.272;2023-01-15T20:33:02;10.50;;;6.30;;
71513;SDS011;59335;46.652;21.272;2023-01-15T20:36:07;10.52;;;6.22;;
71513;SDS011;59335;46.652;21.272;2023-01-15T20:39:11;10.82;;;6.65;;
71513;SDS011;59335;46.652;21.272;2023-01-15T20:42:18;10.50;;;6.20;;
71513;SDS011;59335;46.652;21.272;2023-01-15T20:45:40;9.30;;;5.90;;